Terminal Aerodrome Forecast
Issued by NWS Charleston, WV

Current Version | Previous Version | Text Only | Print | Product List | Glossary Off
Versions: 1 2 3 4 5 6 7 8 9 10 11 12 13 14 15 16 17 18 19 20 21 22 23 24 25 26 27 28 29 30

000
FTUS41 KRLX 301100
TAFBKW
TAF
KBKW 301120Z 3012/3112 31010KT 5SM -SN BR OVC014
     FM301300 30013G20KT 2SM -SN BR BKN015
     FM301700 31014G21KT 5SM -SN BR BKN025
     FM310200 32008G13KT P6SM SCT015=

USA.gov is the U.S. government's official web portal to all federal, state and local government web resources and services.